Decoded Metar for YPKG (KALGOORLIE in AUSTRALIA) (IATA:KGI) | Meteo·Mobile Aviation Weather
aviador You're here:

YPKG Decoded Metar

KALGOORLIE in AUSTRALIA
Report Time2018-08-22 05:30:00
UTC Time2018-08-22 05:38:32
Flight Rules vfr VFR
Wind220° at 16 Gusting to 27 kt
W.Decomp.*RWY 18: 12.4 kt HW 10.1 kt RCW
RWY 29: 5.2 kt HW 15.1 kt LCW
W.Rank220° ranks 26
Current wind is above 220° avg. (8.1)
Visibility9999 m
Phenomena:N/A
Clouds:Broken 063 Hf
Expected CloudBase > 6,800 ft AGL from Temp-Dew spread
Ceiling6,300 ft
Temp15°C (ISA +2)
Dew Point-2°C (31% RH)
AAT7.0°C
QNH1019 hPa
Density Alt1,332 ft
Elevation1,181 ft
Report Wrong Elevation
Raw Report
SPECI YPKG 220530Z AUTO 22016G27KT 9999 // BKN063 15/M02 Q1019
RF00.0/000.2=

Extra information for YPKG:More info

Metar Taf Metar & Taf Last 4 Metars F.Rules Stats Wind Profile Meteogram Temp Stats Airport Information Weather charts Add Link Nearby VenuesMetar ALERT Operation Metar Decoded Social comments